createdAt,value
2023-03-04T00:02:51.519Z,65081.84
2023-03-04T00:07:57.456Z,65109.47
2023-03-04T00:13:01.549Z,65121.25
2023-03-04T00:18:06.126Z,65108.84
2023-03-04T00:23:12.151Z,65085.69
2023-03-04T00:28:16.993Z,65090.34
2023-03-04T00:33:21.422Z,65069.44
2023-03-04T00:38:27.291Z,65078.66
2023-03-04T00:43:32.252Z,65082.47
2023-03-04T00:48:38.692Z,65092.03
2023-03-04T00:53:44.561Z,65106.28
2023-03-04T00:58:48.653Z,65133.91
2023-03-04T01:03:53.235Z,65069.72
2023-03-04T01:08:59.014Z,65070.78
2023-03-04T01:14:03.405Z,65069.19
2023-03-04T01:19:07.879Z,65097.34
2023-03-04T01:24:15.271Z,65096.31
2023-03-04T01:29:19.385Z,65126.06
2023-03-04T01:34:24.075Z,65101.19
2023-03-04T01:39:30.004Z,65138.38
2023-03-04T01:44:34.453Z,65110.53
2023-03-04T01:49:38.874Z,65125.63
2023-03-04T01:54:44.813Z,65104.81
2023-03-04T02:00:08.909Z,65095.25
2023-03-04T02:05:18.961Z,65129.78
2023-03-04T02:10:25.437Z,65102.56
2023-03-04T02:15:30.353Z,65136.88
2023-03-04T02:20:43.792Z,65112.34
2023-03-04T02:25:54.391Z,65101.19
2023-03-04T02:31:00.561Z,65094.19
2023-03-04T02:36:05.602Z,65131.78
2023-03-04T02:41:14.857Z,65119.25
2023-03-04T02:46:21.573Z,65129.78
2023-03-04T02:51:26.228Z,65120.84
2023-03-04T02:56:30.794Z,65083.97
2023-03-04T03:01:36.825Z,65102.66
2023-03-04T03:06:41.441Z,65076.75
2023-03-04T03:11:46.421Z,65087.16
2023-03-04T03:16:53.423Z,65082.06
2023-03-04T03:21:57.931Z,65096.31
2023-03-04T03:27:02.570Z,65148.38
2023-03-04T03:32:09.777Z,65107.56
2023-03-04T03:37:14.474Z,65107.88
2023-03-04T03:42:18.817Z,65066.56
2023-03-04T03:47:24.725Z,65103.22
2023-03-04T03:52:29.166Z,65110.00
2023-03-04T03:57:33.948Z,65107.34
2023-03-04T04:02:42.307Z,65103.31
2023-03-04T04:07:48.228Z,65095.13
2023-03-04T04:12:52.631Z,65102.13
2023-03-04T04:17:58.841Z,65154.44
2023-03-04T04:23:03.170Z,65171.75
2023-03-04T04:28:07.865Z,65162.31
2023-03-04T04:33:13.739Z,65168.03
2023-03-04T04:38:17.834Z,65163.16
2023-03-04T04:43:22.472Z,65075.38
2023-03-04T04:48:28.484Z,65119.03
2023-03-04T04:53:33.018Z,65116.06
2023-03-04T04:58:38.315Z,65111.69
2023-03-04T05:03:44.238Z,65101.59
2023-03-04T05:08:48.389Z,65117.13
2023-03-04T05:13:52.964Z,65102.66
2023-03-04T05:18:58.885Z,65148.56
2023-03-04T05:24:03.035Z,65166.84
2023-03-04T05:29:07.459Z,65149.00
2023-03-04T05:34:13.262Z,65150.50
2023-03-04T05:39:17.929Z,65140.94
2023-03-04T05:44:22.363Z,65151.13
2023-03-04T05:49:28.167Z,65149.22
2023-03-04T05:54:32.367Z,65184.94
2023-03-04T05:59:36.688Z,65197.38
2023-03-04T06:04:42.547Z,65165.38
2023-03-04T06:09:46.567Z,65153.69
2023-03-04T06:14:51.026Z,65144.13
2023-03-04T06:19:57.049Z,65181.97
2023-03-04T06:25:01.092Z,65153.16
2023-03-04T06:30:06.686Z,65143.56
2023-03-04T06:35:16.860Z,65164.44
2023-03-04T06:40:22.445Z,65187.19
2023-03-04T06:45:26.808Z,65198.34
2023-03-04T06:50:32.976Z,65181.44
2023-03-04T06:55:37.261Z,65181.97
2023-03-04T07:00:41.639Z,65193.66
2023-03-04T07:05:47.689Z,65191.53
2023-03-04T07:10:51.722Z,65205.25
2023-03-04T07:15:56.039Z,65200.47
2023-03-04T07:21:01.858Z,65191.97
2023-03-04T07:26:07.036Z,65191.44
2023-03-04T07:31:14.733Z,65197.06
2023-03-04T07:36:21.009Z,65193.66
2023-03-04T07:41:27.809Z,65251.72
2023-03-04T07:46:32.294Z,65197.28
2023-03-04T07:51:38.030Z,65197.81
2023-03-04T07:56:42.689Z,65190.59
2023-03-04T08:01:47.278Z,65240.47
2023-03-04T08:06:53.171Z,65204.19
2023-03-04T08:11:57.665Z,65189.94
2023-03-04T08:17:02.285Z,65241.97
2023-03-04T08:22:08.516Z,65208.56
2023-03-04T08:27:12.885Z,65220.59
2023-03-04T08:32:17.543Z,65234.63
2023-03-04T08:37:23.569Z,65180.50
2023-03-04T08:42:28.002Z,65184.31
2023-03-04T08:47:32.603Z,65180.69
2023-03-04T08:52:38.478Z,65190.03
2023-03-04T08:57:43.260Z,65237.59
2023-03-04T09:02:47.899Z,65245.34
2023-03-04T09:07:54.349Z,65224.19
2023-03-04T09:12:59.794Z,65248.34
2023-03-04T09:18:05.038Z,65228.53
2023-03-04T09:23:14.384Z,65224.50
2023-03-04T09:28:20.198Z,65245.13
2023-03-04T09:33:36.509Z,65225.34
2023-03-04T09:38:50.140Z,65216.00
2023-03-04T09:44:00.301Z,65253.47
2023-03-04T09:49:07.599Z,65214.72
2023-03-04T09:54:19.777Z,65279.63
2023-03-04T09:59:31.509Z,65219.19
2023-03-04T10:04:40.084Z,65251.09
2023-03-04T10:09:51.177Z,65245.34
2023-03-04T10:15:05.638Z,65229.81
2023-03-04T10:20:20.444Z,65251.63
2023-03-04T10:25:29.567Z,65249.50
2023-03-04T10:30:41.863Z,65257.38
2023-03-04T10:35:48.676Z,65256.97
2023-03-04T10:40:54.431Z,65247.91
2023-03-04T10:46:02.158Z,65240.47
2023-03-04T10:51:19.692Z,65221.13
2023-03-04T10:56:45.842Z,65259.09
2023-03-04T11:01:58.264Z,65262.06
2023-03-04T11:07:02.906Z,65252.69
2023-03-04T11:12:13.017Z,65227.69
2023-03-04T11:17:25.218Z,65204.31
2023-03-04T11:22:32.947Z,65206.34
2023-03-04T11:27:46.314Z,65223.03
2023-03-04T11:32:53.023Z,65221.75
2023-03-04T11:38:07.172Z,65192.59
2023-03-04T11:43:19.033Z,65206.44
2023-03-04T11:48:39.591Z,65185.03
2023-03-04T11:53:52.998Z,65208.97
2023-03-04T11:59:35.204Z,65231.75
2023-03-04T12:05:13.696Z,65241.53
2023-03-04T12:10:27.321Z,65228.75
2023-03-04T12:15:45.116Z,65238.44
2023-03-04T12:21:02.195Z,65251.44
2023-03-04T12:26:19.334Z,65244.72
2023-03-04T12:31:42.594Z,65259.50
2023-03-04T12:36:56.242Z,65246.19
2023-03-04T12:42:11.327Z,65230.47
2023-03-04T12:47:30.474Z,65290.25
2023-03-04T12:52:46.375Z,65263.44
2023-03-04T12:57:51.556Z,65294.41
2023-03-04T13:03:08.611Z,65310.69
2023-03-04T13:08:26.223Z,65279.19
2023-03-04T13:13:41.938Z,65273.88
2023-03-04T13:18:47.881Z,65304.22
2023-03-04T13:23:53.443Z,65300.59
2023-03-04T13:29:35.339Z,65241.53
2023-03-04T13:34:54.112Z,65301.22
2023-03-04T13:40:33.874Z,65276.53
2023-03-04T13:45:39.291Z,65283.03
2023-03-04T13:50:50.742Z,65299.00
2023-03-04T13:56:08.339Z,65277.06
2023-03-04T14:01:26.913Z,65267.59
2023-03-04T14:06:33.389Z,65249.59
2023-03-04T14:11:42.990Z,65281.63
2023-03-04T14:16:50.549Z,65251.00
2023-03-04T14:21:57.579Z,65272.38
2023-03-04T14:27:12.686Z,65311.22
2023-03-04T14:32:17.367Z,65308.56
2023-03-04T14:37:28.780Z,65296.75
2023-03-04T14:42:40.540Z,65296.75
2023-03-04T14:47:48.721Z,65310.69
2023-03-04T14:53:14.191Z,65321.88
2023-03-04T14:58:24.590Z,65335.50
2023-03-04T15:03:31.574Z,65280.47
2023-03-04T15:08:39.880Z,65309.09
2023-03-04T15:13:46.365Z,65313.44
2023-03-04T15:19:28.247Z,65316.97
2023-03-04T15:24:36.616Z,65326.03
2023-03-04T15:29:43.295Z,65313.56
2023-03-04T15:34:47.952Z,65311.66
2023-03-04T15:39:55.005Z,65276.44
2023-03-04T15:44:59.452Z,65266.53
2023-03-04T15:50:04.066Z,65259.19
2023-03-04T15:55:15.450Z,65351.16
2023-03-04T16:00:20.542Z,65316.44
2023-03-04T16:05:26.501Z,65319.13
2023-03-04T16:10:33.849Z,65333.06
2023-03-04T16:15:38.519Z,65329.44
2023-03-04T16:20:47.779Z,65304.63
2023-03-04T16:25:56.595Z,65332.00
2023-03-04T16:31:01.037Z,65353.09
2023-03-04T16:36:12.161Z,65344.31
2023-03-04T16:41:21.876Z,65338.78
2023-03-04T16:46:26.338Z,65420.81
2023-03-04T16:51:37.951Z,65350.72
2023-03-04T16:56:44.107Z,65359.34
2023-03-04T17:01:49.150Z,65378.84
2023-03-04T17:06:53.583Z,65380.00
2023-03-04T17:12:00.122Z,65401.22
2023-03-04T17:17:06.635Z,65310.16
2023-03-04T17:22:11.258Z,65318.25
2023-03-04T17:27:18.031Z,65340.81
2023-03-04T17:32:22.574Z,65348.28
2023-03-04T17:37:27.282Z,65322.31
2023-03-04T17:42:48.103Z,65330.50
2023-03-04T17:47:59.349Z,65287.28
2023-03-04T17:53:03.694Z,65311.44
2023-03-04T17:58:10.707Z,65311.75
2023-03-04T18:03:16.458Z,65361.81
2023-03-04T18:08:23.923Z,65302.09
2023-03-04T18:13:30.445Z,65326.78
2023-03-04T18:18:36.613Z,65342.63
2023-03-04T18:23:41.531Z,65375.09
2023-03-04T18:28:47.856Z,65326.78
2023-03-04T18:33:56.582Z,65335.06
2023-03-04T18:39:02.464Z,65373.50
2023-03-04T18:44:12.050Z,65374.47
2023-03-04T18:49:24.858Z,65392.69
2023-03-04T18:54:29.463Z,65387.34
2023-03-04T18:59:42.336Z,65387.88
2023-03-04T19:04:48.331Z,65373.94
2023-03-04T19:09:52.902Z,65380.97
2023-03-04T19:14:59.144Z,65416.66
2023-03-04T19:20:04.622Z,65387.47
2023-03-04T19:25:10.237Z,65379.91
2023-03-04T19:30:16.616Z,65367.56
2023-03-04T19:35:21.585Z,65360.75
2023-03-04T19:40:28.385Z,65385.66
2023-03-04T19:45:34.680Z,65301.75
2023-03-04T19:50:39.449Z,65251.31
2023-03-04T19:55:45.533Z,65215.16
2023-03-04T20:00:53.655Z,65297.41
2023-03-04T20:06:04.799Z,65295.25
2023-03-04T20:11:13.446Z,65272.81
2023-03-04T20:16:19.848Z,65288.13
2023-03-04T20:21:24.708Z,65256.84
2023-03-04T20:26:30.981Z,65275.59
2023-03-04T20:31:40.680Z,65297.59
2023-03-04T20:36:45.375Z,65237.19
2023-03-04T20:41:50.129Z,65241.44
2023-03-04T20:46:56.673Z,65250.13
2023-03-04T20:52:06.638Z,65259.19
2023-03-04T20:57:11.965Z,65255.91
2023-03-04T21:02:20.052Z,65243.00
2023-03-04T21:07:26.455Z,65271.31
2023-03-04T21:12:31.071Z,65242.59
2023-03-04T21:17:37.168Z,65299.44
2023-03-04T21:22:41.713Z,65319.22
2023-03-04T21:27:47.098Z,65312.28
2023-03-04T21:32:54.281Z,65294.00
2023-03-04T21:37:58.998Z,65341.34
2023-03-04T21:43:10.150Z,65301.66
2023-03-04T21:48:16.355Z,65263.22
2023-03-04T21:53:23.769Z,65247.06
2023-03-04T21:58:28.710Z,65342.84
2023-03-04T22:03:38.041Z,65230.78
2023-03-04T22:08:43.213Z,65302.19
2023-03-04T22:13:49.194Z,65242.59
2023-03-04T22:18:55.696Z,65262.81
2023-03-04T22:24:00.744Z,65240.38
2023-03-04T22:29:06.931Z,65229.72
2023-03-04T22:34:14.965Z,65291.53
2023-03-04T22:39:22.463Z,65321.34
2023-03-04T22:44:27.297Z,65262.28
2023-03-04T22:49:33.773Z,65299.84
2023-03-04T22:54:38.330Z,65272.38
2023-03-04T22:59:42.842Z,65172.50
2023-03-04T23:04:48.923Z,65170.28
2023-03-04T23:09:53.481Z,65144.66
2023-03-04T23:14:59.229Z,65138.91
2023-03-04T23:20:05.993Z,65183.03
2023-03-04T23:25:11.146Z,65247.06
2023-03-04T23:30:17.743Z,65234.94
2023-03-04T23:35:23.815Z,65187.28
2023-03-04T23:40:28.281Z,65189.84
2023-03-04T23:45:33.403Z,65214.28
2023-03-04T23:50:39.363Z,65144.75
2023-03-04T23:55:43.311Z,65177.09
